Time;durP1;ratioP1;P1;durP2;ratioP2;P2;SDS_P1;SDS_P2;PMS_P1;PMS_P2;Temp;Humidity;BMP_temperature;BMP_pressure;BME280_temperature;BME280_humidity;BME280_pressure;Samples;Min_cycle;Max_cycle;Signal;HPM_P1;HPM_P2
2023/04/28 00:00:30;;;;;;;6.17;3.90;;;;;;;11.46;100.00;96085.66;5014302;28;20028;-84
2023/04/28 00:03:01;;;;;;;7.70;3.80;;;;;;;11.41;100.00;96087.19;5032743;28;20036;-84
2023/04/28 00:05:27;;;;;;;8.83;3.80;;;;;;;11.56;100.00;96088.94;5022981;28;20518;-84
2023/04/28 00:07:53;;;;;;;9.33;3.80;;;;;;;11.53;100.00;96085.81;5021002;28;20032;-84
2023/04/28 00:10:18;;;;;;;6.80;3.40;;;;;;;11.54;100.00;96075.13;5008107;28;20024;-84
2023/04/28 00:12:44;;;;;;;8.43;3.30;;;;;;;11.52;100.00;96079.72;5004053;28;20082;-84
2023/04/28 00:15:10;;;;;;;8.17;3.50;;;;;;;11.49;100.00;96063.44;5010990;28;20470;-85
2023/04/28 00:17:35;;;;;;;7.73;3.07;;;;;;;11.50;100.00;96065.94;5022411;28;20097;-84
2023/04/28 00:20:02;;;;;;;8.03;3.60;;;;;;;11.46;100.00;96069.88;5022190;28;20113;-84
2023/04/28 00:22:27;;;;;;;7.50;3.43;;;;;;;11.45;100.00;96062.16;5022765;28;20045;-85
2023/04/28 00:24:53;;;;;;;7.70;3.60;;;;;;;11.56;100.00;96059.97;5009264;28;20031;-84
2023/04/28 00:27:19;;;;;;;13.37;3.53;;;;;;;11.52;100.00;96058.66;5024495;28;20062;-85
2023/04/28 00:29:48;;;;;;;8.87;4.00;;;;;;;11.56;100.00;96054.69;5025651;28;20036;-84
2023/04/28 00:32:13;;;;;;;10.40;4.10;;;;;;;11.53;100.00;96044.50;5044464;28;20071;-85
2023/04/28 00:34:39;;;;;;;7.33;3.40;;;;;;;11.57;100.00;96040.56;5043668;28;20040;-84
2023/04/28 00:37:05;;;;;;;8.13;3.90;;;;;;;11.63;100.00;96032.94;5056911;28;20025;-84
2023/04/28 00:39:33;;;;;;;9.43;3.80;;;;;;;11.63;100.00;96032.94;5042384;28;20068;-85
2023/04/28 00:42:00;;;;;;;6.53;3.13;;;;;;;11.70;100.00;96040.00;5042527;28;20024;-85
2023/04/28 00:44:26;;;;;;;8.70;4.03;;;;;;;11.77;100.00;96034.88;5060657;28;20394;-85
2023/04/28 00:46:52;;;;;;;7.70;3.53;;;;;;;11.63;100.00;96028.50;5057969;28;20033;-84
2023/04/28 00:49:18;;;;;;;7.70;3.87;;;;;;;11.67;100.00;96023.69;5059562;28;20039;-84
2023/04/28 00:51:48;;;;;;;8.07;3.30;;;;;;;11.82;100.00;96027.28;5055164;28;20032;-84
2023/04/28 00:54:14;;;;;;;8.17;3.53;;;;;;;11.79;100.00;96017.88;5057375;28;20037;-84
2023/04/28 00:56:40;;;;;;;7.07;3.80;;;;;;;11.80;100.00;96023.97;5040415;28;20032;-85
2023/04/28 00:59:26;;;;;;;7.07;3.63;;;;;;;11.84;100.00;96017.41;5057556;28;20036;-84
2023/04/28 01:01:52;;;;;;;8.30;3.47;;;;;;;11.76;100.00;96022.69;5056385;28;20062;-83
2023/04/28 01:04:20;;;;;;;5.97;3.63;;;;;;;11.84;100.00;96024.44;5043774;28;20037;-84
2023/04/28 01:06:51;;;;;;;7.17;4.30;;;;;;;11.89;100.00;96022.97;5042364;28;20024;-84
2023/04/28 01:09:17;;;;;;;6.73;3.67;;;;;;;11.85;100.00;96020.88;5043109;28;20110;-85
2023/04/28 01:11:42;;;;;;;7.77;3.10;;;;;;;11.86;100.00;96010.16;5057012;28;21382;-84
2023/04/28 01:14:17;;;;;;;9.10;3.63;;;;;;;11.88;100.00;96010.81;5056971;28;20013;-85
2023/04/28 01:16:43;;;;;;;6.30;3.43;;;;;;;11.91;100.00;96001.75;5044694;28;21466;-83
2023/04/28 01:19:18;;;;;;;6.43;3.63;;;;;;;11.94;100.00;96004.03;5057635;28;20035;-84
2023/04/28 01:21:44;;;;;;;7.17;3.23;;;;;;;12.07;100.00;95999.00;5057206;28;20486;-84
2023/04/28 01:24:20;;;;;;;6.57;3.50;;;;;;;12.13;100.00;96008.84;5057187;28;20031;-84
2023/04/28 01:26:46;;;;;;;7.50;3.70;;;;;;;12.22;100.00;96004.34;5043419;28;20032;-84
2023/04/28 01:29:11;;;;;;;8.63;4.03;;;;;;;12.23;100.00;96008.63;5056315;28;20079;-84
2023/04/28 01:31:37;;;;;;;9.27;3.50;;;;;;;12.18;100.00;96008.34;5040549;28;20053;-84
2023/04/28 01:34:02;;;;;;;6.23;3.37;;;;;;;12.19;100.00;96004.69;5058938;28;20029;-85
2023/04/28 01:36:29;;;;;;;8.67;3.13;;;;;;;12.27;100.00;96002.84;5055133;28;20398;-84
2023/04/28 01:38:55;;;;;;;6.07;3.27;;;;;;;12.26;100.00;96009.09;5055937;28;20439;-85
2023/04/28 01:41:21;;;;;;;4.90;3.00;;;;;;;12.28;100.00;96011.56;5056371;28;20442;-85
2023/04/28 01:43:49;;;;;;;5.33;3.20;;;;;;;12.21;100.00;96005.34;5077448;28;20031;-84
2023/04/28 01:46:15;;;;;;;6.00;3.00;;;;;;;12.08;100.00;96003.28;5044558;28;20025;-84
2023/04/28 01:48:40;;;;;;;6.20;3.73;;;;;;;11.79;100.00;96007.34;5043018;28;20546;-86
2023/04/28 01:51:16;;;;;;;7.43;4.33;;;;;;;11.57;100.00;96002.88;5039534;28;20431;-84
2023/04/28 01:53:42;;;;;;;7.10;4.03;;;;;;;11.51;100.00;96009.63;5047019;28;20037;-85
2023/04/28 01:56:07;;;;;;;9.33;3.90;;;;;;;11.48;100.00;95999.44;5059369;28;20394;-85
2023/04/28 01:58:34;;;;;;;8.93;4.30;;;;;;;11.44;100.00;95992.88;5042916;28;20086;-84
2023/04/28 02:00:59;;;;;;;9.00;4.27;;;;;;;11.41;100.00;95987.94;5052722;28;20064;-84
2023/04/28 02:03:26;;;;;;;7.93;4.33;;;;;;;11.45;100.00;95983.97;5042423;28;20036;-83
2023/04/28 02:05:53;;;;;;;7.57;4.53;;;;;;;11.35;100.00;95988.63;5040956;28;20044;-85
2023/04/28 02:08:21;;;;;;;8.03;4.50;;;;;;;11.52;100.00;95992.81;5045208;28;20048;-85
2023/04/28 02:10:46;;;;;;;6.50;3.90;;;;;;;11.50;100.00;96000.09;5075705;28;20059;-84
2023/04/28 02:13:12;;;;;;;8.30;4.27;;;;;;;11.46;100.00;96003.22;5043245;28;20021;-84
2023/04/28 02:15:43;;;;;;;8.53;4.03;;;;;;;11.51;100.00;96001.72;5060155;28;20029;-84
2023/04/28 02:18:11;;;;;;;8.87;4.37;;;;;;;11.51;100.00;96001.72;5043850;28;20124;-85
2023/04/28 02:20:40;;;;;;;7.23;4.27;;;;;;;11.68;100.00;96004.28;5044699;28;20056;-85
2023/04/28 02:23:13;;;;;;;10.93;4.60;;;;;;;11.70;100.00;95992.59;5057655;28;20017;-84
2023/04/28 02:25:38;;;;;;;9.97;4.40;;;;;;;11.61;100.00;95987.53;5042402;28;20090;-85
2023/04/28 02:28:04;;;;;;;6.70;3.87;;;;;;;11.58;100.00;95988.69;5044124;28;20025;-85
2023/04/28 02:30:33;;;;;;;6.80;4.00;;;;;;;11.60;100.00;95997.22;5045370;28;20788;-85
2023/04/28 02:32:59;;;;;;;6.50;3.50;;;;;;;11.80;100.00;95997.63;5073371;28;20033;-85
2023/04/28 02:35:24;;;;;;;8.77;3.90;;;;;;;11.60;100.00;96004.31;5056648;28;20394;-85
2023/04/28 02:37:55;;;;;;;5.47;3.53;;;;;;;11.65;100.00;96002.00;5042797;28;20024;-85
2023/04/28 02:40:20;;;;;;;6.73;3.43;;;;;;;11.70;100.00;95992.59;5058552;28;20630;-85
2023/04/28 02:42:47;;;;;;;6.93;3.93;;;;;;;11.60;100.00;95991.13;5061110;28;20031;-85
2023/04/28 02:45:15;;;;;;;15.50;5.17;;;;;;;11.37;100.00;95989.28;5060310;28;20033;-84
2023/04/28 02:47:41;;;;;;;10.27;4.20;;;;;;;11.50;100.00;95978.19;5057120;28;20025;-85
2023/04/28 02:50:07;;;;;;;7.10;4.23;;;;;;;11.39;100.00;95978.56;5043826;28;20044;-84
2023/04/28 02:52:34;;;;;;;6.87;3.53;;;;;;;11.44;100.00;95971.81;5060709;28;20033;-85
2023/04/28 02:54:59;;;;;;;8.53;3.70;;;;;;;11.40;100.00;95974.94;5045466;28;20025;-85
2023/04/28 02:57:25;;;;;;;6.57;3.87;;;;;;;11.46;100.00;95966.34;5060878;28;20029;-85
2023/04/28 02:59:51;;;;;;;11.40;4.47;;;;;;;11.35;100.00;95964.09;5055734;28;20043;-85
2023/04/28 03:02:16;;;;;;;7.30;4.10;;;;;;;11.29;100.00;95958.50;5057348;28;20025;-84
2023/04/28 03:04:42;;;;;;;7.47;3.90;;;;;;;11.16;100.00;95960.84;5037798;28;20036;-85
2023/04/28 03:07:08;;;;;;;8.80;4.23;;;;;;;11.28;100.00;95963.97;5040357;28;20037;-84
2023/04/28 03:09:36;;;;;;;8.67;4.23;;;;;;;11.24;100.00;95966.13;5043558;28;20032;-84
2023/04/28 03:12:02;;;;;;;7.83;4.23;;;;;;;11.29;100.00;95947.97;5057432;28;20037;-84
2023/04/28 03:14:29;;;;;;;7.90;4.43;;;;;;;11.26;100.00;95952.78;5040215;28;20382;-85
2023/04/28 03:16:56;;;;;;;10.40;4.40;;;;;;;11.20;100.00;95959.56;5058243;28;20033;-84
2023/04/28 03:19:25;;;;;;;11.53;4.30;;;;;;;11.24;100.00;95954.78;5049645;28;20060;-85
2023/04/28 03:21:51;;;;;;;8.27;3.80;;;;;;;11.28;100.00;95963.97;5073828;28;20029;-85
2023/04/28 03:24:17;;;;;;;8.20;4.37;;;;;;;11.29;100.00;95961.16;5056268;28;20032;-84
2023/04/28 03:26:43;;;;;;;9.73;4.10;;;;;;;11.22;100.00;95946.22;5046444;28;20054;-84
2023/04/28 03:29:09;;;;;;;10.77;4.57;;;;;;;11.26;100.00;95958.84;5049869;28;20025;-85
2023/04/28 03:31:35;;;;;;;7.97;4.40;;;;;;;11.22;100.00;95954.94;5045905;28;20387;-85
2023/04/28 03:34:03;;;;;;;6.57;3.87;;;;;;;11.21;100.00;95947.22;5062196;28;20482;-86
2023/04/28 03:36:28;;;;;;;7.03;3.90;;;;;;;11.21;100.00;95944.56;5065599;28;20395;-84
2023/04/28 03:38:58;;;;;;;7.90;4.03;;;;;;;11.29;100.00;95932.19;5061087;28;20047;-85
2023/04/28 03:41:24;;;;;;;6.70;3.67;;;;;;;11.31;100.00;95929.41;5080651;28;20033;-84
2023/04/28 03:44:12;;;;;;;8.13;4.03;;;;;;;11.30;100.00;95927.75;5060681;28;20082;-84
2023/04/28 03:46:47;;;;;;;7.13;3.33;;;;;;;11.34;100.00;95923.78;5042475;28;20101;-85
2023/04/28 03:49:14;;;;;;;8.80;4.67;;;;;;;11.43;100.00;95930.66;5057645;28;20031;-85
2023/04/28 03:51:40;;;;;;;8.03;4.50;;;;;;;11.31;100.00;95930.22;5056278;28;20037;-85
2023/04/28 03:54:06;;;;;;;7.90;4.80;;;;;;;11.30;100.00;95925.09;5055246;28;20044;-85
2023/04/28 03:56:33;;;;;;;8.30;4.37;;;;;;;11.33;100.00;95937.94;5072447;28;20032;-85
2023/04/28 03:59:00;;;;;;;7.77;4.67;;;;;;;11.37;100.00;95934.00;5039255;28;20139;-85
2023/04/28 04:01:27;;;;;;;12.53;5.57;;;;;;;11.40;100.00;95928.38;5055960;28;20127;-85
2023/04/28 04:03:52;;;;;;;18.13;8.87;;;;;;;11.47;100.00;95931.97;5058599;28;20032;-85
2023/04/28 04:06:18;;;;;;;26.00;10.83;;;;;;;11.39;100.00;95937.25;5064286;28;20514;-84
2023/04/28 04:08:44;;;;;;;17.47;8.23;;;;;;;11.39;100.00;95926.72;5050639;28;20036;-84
2023/04/28 04:11:10;;;;;;;18.17;8.10;;;;;;;11.48;100.00;95928.34;5042835;28;20116;-85
2023/04/28 04:13:35;;;;;;;26.30;11.33;;;;;;;11.52;100.00;95937.53;5047516;28;20033;-85
2023/04/28 04:16:06;;;;;;;16.83;8.13;;;;;;;11.48;100.00;95930.16;5045887;28;20024;-86
2023/04/28 04:18:31;;;;;;;10.50;5.03;;;;;;;11.45;100.00;95944.47;5045535;28;20066;-85
2023/04/28 04:21:09;;;;;;;8.03;4.13;;;;;;;11.26;100.00;95942.25;5043431;28;20075;-85
2023/04/28 04:23:35;;;;;;;8.73;4.47;;;;;;;11.40;100.00;95941.53;5057906;28;20493;-85
2023/04/28 04:26:00;;;;;;;7.90;4.40;;;;;;;11.55;100.00;95941.63;5047971;28;20032;-86
2023/04/28 04:28:26;;;;;;;10.80;4.00;;;;;;;11.50;100.00;95941.31;5042942;28;20790;-85
2023/04/28 04:30:55;;;;;;;8.03;4.33;;;;;;;11.44;100.00;95940.19;5048314;28;20052;-85
2023/04/28 04:33:20;;;;;;;8.37;3.87;;;;;;;11.28;100.00;95933.19;5061956;28;20474;-85
2023/04/28 04:35:46;;;;;;;8.37;3.70;;;;;;;11.14;100.00;95935.72;5058660;28;20055;-84
2023/04/28 04:38:12;;;;;;;6.73;3.60;;;;;;;11.19;100.00;95936.03;5060261;28;20028;-85
2023/04/28 04:40:44;;;;;;;8.37;4.03;;;;;;;11.27;100.00;95936.81;5043841;28;20041;-85
2023/04/28 04:43:10;;;;;;;8.17;4.13;;;;;;;11.49;100.00;95939.69;5057159;28;21412;-84
2023/04/28 04:45:42;;;;;;;8.33;4.00;;;;;;;11.39;100.00;95936.44;5065161;28;20040;-79
2023/04/28 04:48:08;;;;;;;11.23;5.80;;;;;;;11.20;100.00;95930.59;5064612;28;20085;-86
2023/04/28 04:50:34;;;;;;;12.47;4.87;;;;;;;11.26;100.00;95926.44;5046690;28;20093;-86
2023/04/28 04:52:59;;;;;;;10.80;5.07;;;;;;;11.29;100.00;95926.09;5049558;28;20028;-87
2023/04/28 04:55:27;;;;;;;10.50;4.40;;;;;;;11.23;100.00;95932.03;5056160;28;20071;-88
2023/04/28 04:57:53;;;;;;;9.80;4.63;;;;;;;11.36;100.00;95927.06;5050197;28;20047;-89
2023/04/28 05:00:25;;;;;;;6.27;3.80;;;;;;;11.32;100.00;95925.75;5057513;28;20135;-86
2023/04/28 05:02:52;;;;;;;7.97;4.27;;;;;;;11.26;100.00;95929.91;5046963;28;20062;-87
2023/04/28 05:05:17;;;;;;;7.93;4.10;;;;;;;11.23;100.00;95935.53;5040264;28;20677;-87
2023/04/28 05:07:44;;;;;;;9.27;4.57;;;;;;;11.30;100.00;95931.22;5056825;28;20040;-87
2023/04/28 05:10:10;;;;;;;9.30;5.80;;;;;;;11.21;100.00;95936.69;5040558;28;20024;-86
2023/04/28 05:12:37;;;;;;;9.77;5.80;;;;;;;11.29;100.00;95936.63;5044466;28;20039;-87
2023/04/28 05:15:05;;;;;;;11.10;5.83;;;;;;;11.40;100.00;95932.81;5041290;28;20020;-86
2023/04/28 05:17:33;;;;;;;9.70;5.40;;;;;;;11.36;100.00;95937.59;5047990;28;20071;-87
2023/04/28 05:19:58;;;;;;;7.63;4.40;;;;;;;11.28;100.00;95940.28;5069090;28;20040;-86
2023/04/28 05:22:25;;;;;;;9.00;4.40;;;;;;;11.32;100.00;95947.66;5042188;28;20093;-86
2023/04/28 05:24:51;;;;;;;9.37;4.77;;;;;;;11.07;100.00;95944.28;5049275;28;20523;-87
2023/04/28 05:27:18;;;;;;;7.83;4.63;;;;;;;10.96;100.00;95944.63;5044094;28;20032;-88
2023/04/28 05:29:44;;;;;;;11.23;4.67;;;;;;;11.08;100.00;95938.03;5068820;28;20035;-86
2023/04/28 05:32:10;;;;;;;8.33;4.03;;;;;;;10.91;100.00;95935.63;5066426;28;20021;-87
2023/04/28 05:34:36;;;;;;;7.87;4.10;;;;;;;10.98;100.00;95924.25;5053635;28;20035;-87
2023/04/28 05:37:01;;;;;;;10.10;4.23;;;;;;;11.08;100.00;95924.88;5067288;28;20239;-86
2023/04/28 05:39:28;;;;;;;8.57;4.43;;;;;;;11.04;100.00;95918.31;5059163;28;20041;-88
2023/04/28 05:41:57;;;;;;;9.93;5.10;;;;;;;11.01;100.00;95918.66;5071334;28;20032;-87
2023/04/28 05:44:23;;;;;;;10.20;5.63;;;;;;;11.10;100.00;95922.09;5051129;28;20036;-87
2023/04/28 05:46:49;;;;;;;10.97;5.43;;;;;;;11.11;100.00;95922.91;5042511;28;20033;-87
2023/04/28 05:49:20;;;;;;;9.23;4.67;;;;;;;10.93;100.00;95916.06;5045323;28;20484;-86
2023/04/28 05:51:46;;;;;;;8.73;5.47;;;;;;;10.96;100.00;95914.88;5069744;28;20032;-86
2023/04/28 05:54:11;;;;;;;9.17;5.33;;;;;;;10.86;100.00;95904.53;5068860;28;20104;-87
2023/04/28 05:56:42;;;;;;;9.03;4.70;;;;;;;10.94;100.00;95907.16;5084153;28;20119;-87
2023/04/28 05:59:08;;;;;;;9.37;5.73;;;;;;;10.89;100.00;95908.66;5053829;28;20036;-87
2023/04/28 06:01:35;;;;;;;8.57;5.57;;;;;;;10.96;100.00;95912.25;5069777;28;20036;-87
2023/04/28 06:04:00;;;;;;;9.03;5.73;;;;;;;10.92;100.00;95916.22;5051963;28;20032;-86
2023/04/28 06:06:26;;;;;;;10.83;6.13;;;;;;;10.97;100.00;95922.63;5049995;28;20049;-88
2023/04/28 06:08:53;;;;;;;10.77;5.77;;;;;;;10.99;100.00;95933.78;5048555;28;20033;-88
2023/04/28 06:11:21;;;;;;;12.47;5.67;;;;;;;10.99;100.00;95930.31;5047388;28;20449;-87
2023/04/28 06:13:48;;;;;;;10.23;7.27;;;;;;;11.08;100.00;95930.13;5053726;28;20482;-87
2023/04/28 06:16:16;;;;;;;10.07;5.83;;;;;;;10.90;100.00;95933.97;5063165;28;20035;-87
2023/04/28 06:18:41;;;;;;;8.23;4.90;;;;;;;10.94;100.00;95930.84;5057863;28;20058;-88
2023/04/28 06:21:07;;;;;;;8.43;5.60;;;;;;;11.08;100.00;95922.25;5067915;28;20044;-87
2023/04/28 06:23:33;;;;;;;11.97;5.87;;;;;;;11.02;100.00;95920.28;5048097;28;20037;-87
2023/04/28 06:25:59;;;;;;;7.97;5.80;;;;;;;11.13;100.00;95926.97;5059008;28;20389;-87
2023/04/28 06:28:24;;;;;;;8.90;5.37;;;;;;;10.98;100.00;95918.97;5044723;28;20025;-88
2023/04/28 06:30:52;;;;;;;9.40;6.00;;;;;;;10.91;100.00;95925.91;5051722;28;20262;-87
2023/04/28 06:33:17;;;;;;;10.53;6.07;;;;;;;10.82;100.00;95917.22;5051144;28;20051;-88
2023/04/28 06:35:47;;;;;;;10.23;6.27;;;;;;;10.92;100.00;95922.28;5044142;28;20048;-87
2023/04/28 06:38:14;;;;;;;10.40;6.70;;;;;;;11.03;100.00;95916.69;5041610;28;20032;-87
2023/04/28 06:40:40;;;;;;;9.80;6.90;;;;;;;11.03;100.00;95916.69;5065804;28;20033;-87
2023/04/28 06:43:06;;;;;;;9.83;6.77;;;;;;;10.95;100.00;95910.63;5049259;28;20907;-89
2023/04/28 06:46:02;;;;;;;9.37;6.60;;;;;;;10.97;100.00;95919.97;5051910;28;20028;-87
2023/04/28 06:48:28;;;;;;;12.50;7.60;;;;;;;10.96;100.00;95914.88;5064706;28;20035;-88
2023/04/28 06:50:59;;;;;;;9.63;6.20;;;;;;;10.97;100.00;95917.34;5042295;28;20048;-87
2023/04/28 06:53:25;;;;;;;10.57;7.57;;;;;;;11.06;100.00;95921.56;5043632;28;20039;-88
2023/04/28 06:55:51;;;;;;;12.83;7.80;;;;;;;11.03;100.00;95910.56;5042804;28;20035;-87
2023/04/28 06:58:19;;;;;;;10.47;7.00;;;;;;;10.98;100.00;95907.66;5045200;28;20066;-88
2023/04/28 07:00:46;;;;;;;12.60;7.83;;;;;;;10.91;100.00;95904.88;5046168;28;20037;-87
2023/04/28 07:03:12;;;;;;;11.20;7.53;;;;;;;10.97;100.00;95906.00;5050007;28;20393;-86
2023/04/28 07:05:46;;;;;;;10.63;7.47;;;;;;;10.87;100.00;95893.06;5066023;28;20032;-87
2023/04/28 07:08:12;;;;;;;10.37;7.23;;;;;;;10.95;100.00;95886.94;5044913;28;20029;-87
2023/04/28 07:10:55;;;;;;;10.40;7.63;;;;;;;11.10;100.00;95903.66;5054120;28;20036;-88
2023/04/28 07:13:20;;;;;;;9.95;7.20;;;;;;;11.05;100.00;95912.06;5035715;28;20042;-87
2023/04/28 07:15:46;;;;;;;11.03;8.13;;;;;;;11.00;100.00;95911.75;5058756;28;20024;-87
2023/04/28 07:18:12;;;;;;;11.20;8.40;;;;;;;11.00;100.00;95911.75;5072943;28;20024;-88
2023/04/28 07:20:37;;;;;;;11.73;7.70;;;;;;;11.01;100.00;95917.84;5061143;28;20095;-87
2023/04/28 07:23:03;;;;;;;11.43;8.17;;;;;;;10.95;100.00;95921.13;5052520;28;20043;-88
2023/04/28 07:25:29;;;;;;;12.13;8.10;;;;;;;10.90;100.00;95928.69;5049630;28;20133;-87
2023/04/28 07:27:55;;;;;;;11.20;7.93;;;;;;;10.96;100.00;95920.94;5066598;28;20190;-89
2023/04/28 07:30:22;;;;;;;11.97;8.73;;;;;;;10.84;100.00;95917.88;5057890;28;20032;-89
2023/04/28 07:32:47;;;;;;;14.03;9.50;;;;;;;11.08;100.00;95909.09;5052807;28;20112;-88
2023/04/28 07:35:19;;;;;;;13.07;9.27;;;;;;;11.21;100.00;95902.47;5053224;28;20143;-88
2023/04/28 07:37:46;;;;;;;14.53;9.13;;;;;;;11.26;100.00;95900.13;5070526;28;20475;-90
2023/04/28 07:40:13;;;;;;;12.03;8.40;;;;;;;11.30;100.00;95911.94;5053921;28;20128;-90
2023/04/28 07:42:39;;;;;;;13.73;9.30;;;;;;;11.43;100.00;95912.22;5045997;28;20040;-90
2023/04/28 07:45:05;;;;;;;13.27;8.30;;;;;;;11.29;100.00;95913.75;5051470;28;20024;-88
2023/04/28 07:47:41;;;;;;;12.30;9.10;;;;;;;11.26;100.00;95900.94;5067266;28;20024;-89
2023/04/28 07:50:07;;;;;;;13.90;9.47;;;;;;;11.36;100.00;95913.06;5070012;28;20040;-88
2023/04/28 07:53:00;;;;;;;13.73;10.20;;;;;;;11.30;100.00;95907.53;5049867;28;20036;-88
2023/04/28 07:55:49;;;;;;;14.13;9.77;;;;;;;11.30;100.00;95904.91;5062828;28;20047;-87
2023/04/28 07:58:18;;;;;;;16.53;9.60;;;;;;;11.44;100.00;95892.00;5045434;28;20102;-86
2023/04/28 08:00:43;;;;;;;12.53;8.53;;;;;;;11.36;100.00;95879.66;5055671;28;20053;-90
2023/04/28 08:03:10;;;;;;;12.73;9.77;;;;;;;11.54;100.00;95893.41;5051733;28;20033;-89
2023/04/28 08:05:37;;;;;;;12.77;8.47;;;;;;;11.54;100.00;95898.69;5051250;28;20037;-89
2023/04/28 08:08:02;;;;;;;12.20;9.27;;;;;;;11.44;100.00;95892.81;5055734;28;20094;-85
2023/04/28 08:10:28;;;;;;;11.47;8.40;;;;;;;11.51;100.00;95896.38;5072543;28;20082;-88
2023/04/28 08:12:54;;;;;;;12.03;8.13;;;;;;;11.64;100.00;95905.53;5056241;28;20032;-88
2023/04/28 08:15:21;;;;;;;12.13;8.27;;;;;;;11.66;100.00;95908.81;5052796;28;20107;-89
2023/04/28 08:17:52;;;;;;;11.10;7.13;;;;;;;11.69;100.00;95913.72;5049494;28;20063;-89
2023/04/28 08:20:21;;;;;;;11.27;7.30;;;;;;;11.71;100.00;95917.03;5049069;28;20055;-92
2023/04/28 08:22:46;;;;;;;11.90;8.90;;;;;;;11.61;100.00;95900.63;5056868;28;20034;-90
2023/04/28 08:25:12;;;;;;;12.37;8.17;;;;;;;11.64;100.00;95901.09;5073003;28;20029;-87
2023/04/28 08:27:38;;;;;;;14.43;8.40;;;;;;;11.74;100.00;95903.50;5055765;28;20024;-88
2023/04/28 08:30:07;;;;;;;12.80;7.10;;;;;;;11.89;100.00;95900.97;5053756;28;20025;-82
2023/04/28 08:32:32;;;;;;;10.83;7.30;;;;;;;12.03;100.00;95905.47;5070059;28;20117;-83
2023/04/28 08:34:59;;;;;;;11.33;7.27;;;;;;;12.10;100.00;95908.22;5063725;28;20087;-82
2023/04/28 08:37:28;;;;;;;11.47;8.43;;;;;;;12.12;100.00;95906.22;5068731;28;20054;-83
2023/04/28 08:40:00;;;;;;;12.27;8.30;;;;;;;11.98;100.00;95910.44;5069705;28;20482;-83
2023/04/28 08:42:30;;;;;;;12.90;9.00;;;;;;;11.88;100.00;95915.94;5051924;28;20032;-84
2023/04/28 08:45:04;;;;;;;13.67;8.20;;;;;;;12.11;100.00;95909.88;5054806;28;20478;-87
2023/04/28 08:47:39;;;;;;;12.27;9.27;;;;;;;12.07;100.00;95914.66;5081448;28;20032;-83
2023/04/28 08:50:07;;;;;;;13.90;9.10;;;;;;;12.18;100.00;95922.16;5070708;28;20041;-85
2023/04/28 08:52:34;;;;;;;16.27;10.93;;;;;;;12.21;100.00;95923.63;5049319;28;20040;-84
2023/04/28 08:55:02;;;;;;;15.03;11.03;;;;;;;12.32;100.00;95928.47;5063422;28;20071;-89
2023/04/28 08:57:34;;;;;;;13.90;9.70;;;;;;;12.30;100.00;95932.28;5051648;28;20021;-84
2023/04/28 09:00:00;;;;;;;12.20;8.80;;;;;;;12.40;100.00;95938.13;5070367;28;20379;-88
2023/04/28 09:02:25;;;;;;;10.93;8.17;;;;;;;12.38;100.00;95940.94;5070996;28;20070;-83
2023/04/28 09:04:51;;;;;;;7.80;5.57;;;;;;;12.32;100.00;95939.03;5070449;28;20032;-84
2023/04/28 09:07:17;;;;;;;7.73;4.60;;;;;;;12.31;100.00;95931.28;5070653;28;20501;-83
2023/04/28 09:09:44;;;;;;;8.03;5.70;;;;;;;12.36;100.00;95932.38;5050695;28;20593;-84
2023/04/28 09:12:10;;;;;;;12.83;7.87;;;;;;;12.50;100.00;95926.31;5045321;28;20044;-84
2023/04/28 09:14:37;;;;;;;9.70;6.47;;;;;;;12.64;100.00;95930.00;5061966;28;20048;-84
2023/04/28 09:17:13;;;;;;;6.90;4.70;;;;;;;12.66;100.00;95922.72;5052497;28;20037;-85
2023/04/28 09:19:41;;;;;;;8.80;3.87;;;;;;;12.82;100.00;95934.13;5052010;28;20063;-85
2023/04/28 09:22:07;;;;;;;4.57;2.90;;;;;;;12.76;100.00;95934.84;5057896;28;20090;-84
2023/04/28 09:24:41;;;;;;;4.20;2.50;;;;;;;12.76;100.00;95935.66;5041224;28;20036;-85
2023/04/28 09:27:10;;;;;;;5.37;3.07;;;;;;;13.04;100.00;95932.41;5056805;28;20466;-85
2023/04/28 09:29:37;;;;;;;4.40;2.53;;;;;;;13.32;100.00;95928.16;5050703;28;20032;-84
2023/04/28 09:32:12;;;;;;;4.33;2.67;;;;;;;13.38;100.00;95922.16;5070396;28;20092;-86
2023/04/28 09:34:47;;;;;;;4.93;3.30;;;;;;;13.63;100.00;95930.56;5068474;28;20123;-85
2023/04/28 09:37:23;;;;;;;5.20;3.07;;;;;;;13.56;100.00;95927.03;5062645;28;20032;-85
2023/04/28 09:39:53;;;;;;;5.77;2.90;;;;;;;13.26;100.00;95934.16;5071141;28;20041;-89
2023/04/28 09:42:40;;;;;;;5.47;2.73;;;;;;;13.26;100.00;95939.44;5047887;28;20047;-88
2023/04/28 09:45:13;;;;;;;4.73;2.90;;;;;;;13.37;100.00;95938.97;5070467;28;20043;-89
2023/04/28 09:47:40;;;;;;;5.35;3.45;;;;;;;13.32;100.00;95936.06;5065973;28;20044;-89
2023/04/28 09:50:10;;;;;;;5.07;3.20;;;;;;;13.42;100.00;95926.03;5061908;28;20056;-89
2023/04/28 09:52:36;;;;;;;7.00;3.23;;;;;;;13.33;100.00;95926.31;5041058;28;20071;-89
2023/04/28 09:55:04;;;;;;;5.10;3.30;;;;;;;13.66;100.00;95921.44;5054717;28;20036;-89
2023/04/28 09:57:43;;;;;;;4.10;2.60;;;;;;;13.69;100.00;95926.38;5050768;28;20033;-89
2023/04/28 10:00:09;;;;;;;9.17;5.60;;;;;;;13.68;100.00;95914.97;5060939;28;20041;-89
2023/04/28 10:02:38;;;;;;;6.30;3.77;;;;;;;13.57;100.00;95914.63;5056546;28;20048;-90
2023/04/28 10:05:07;;;;;;;6.13;3.63;;;;;;;13.54;100.00;95912.34;5048283;28;20028;-90
2023/04/28 10:07:34;;;;;;;6.73;4.07;;;;;;;13.39;100.00;95915.84;5052521;28;20029;-89
2023/04/28 10:10:00;;;;;;;4.70;3.17;;;;;;;13.59;100.00;95920.56;5072121;28;20081;-89
2023/04/28 10:12:28;;;;;;;4.27;2.63;;;;;;;13.57;100.00;95906.69;5071412;28;20032;-89
2023/04/28 10:14:53;;;;;;;3.27;2.27;;;;;;;13.82;100.00;95900.09;5050717;28;20025;-90
2023/04/28 10:17:21;;;;;;;4.27;2.97;;;;;;;13.95;100.00;95896.75;5054566;28;20028;-90
2023/04/28 10:19:51;;;;;;;5.87;3.40;;;;;;;14.10;100.00;95907.25;5043096;28;20025;-89
2023/04/28 10:22:26;;;;;;;5.57;3.50;;;;;;;14.04;100.00;95900.09;5073566;28;20035;-90
2023/04/28 10:25:24;;;;;;;4.50;2.40;;;;;;;13.96;100.00;95910.78;5053562;28;20127;-90
2023/04/28 10:27:57;;;;;;;3.90;2.20;;;;;;;13.93;100.00;95913.81;5064866;28;20025;-89
2023/04/28 10:30:24;;;;;;;4.45;2.13;;;;;;;13.88;100.00;95919.63;5047320;28;20040;-89
2023/04/28 10:33:13;;;;;;;3.73;2.00;;;;;;;14.03;100.00;95914.31;5064535;28;20028;-89
2023/04/28 10:35:44;;;;;;;3.60;2.53;;;;;;;14.04;100.00;95915.94;5076673;28;20040;-90
2023/04/28 10:38:22;;;;;;;2.90;1.60;;;;;;;14.25;100.00;95908.03;5068176;28;20046;-89
2023/04/28 10:40:50;;;;;;;3.30;2.07;;;;;;;14.36;100.00;95904.84;5069042;28;20094;-89
2023/04/28 10:43:38;;;;;;;3.23;2.10;;;;;;;14.20;100.00;95904.31;5070221;28;20066;-90
2023/04/28 10:46:08;;;;;;;2.87;2.10;;;;;;;14.52;100.00;95895.03;5055746;28;20032;-90
2023/04/28 10:48:47;;;;;;;3.70;2.37;;;;;;;14.61;100.00;95899.16;5056946;28;20028;-91
2023/04/28 10:51:21;;;;;;;4.23;2.20;;;;;;;14.54;100.00;95899.13;5064183;28;20043;-91
2023/04/28 10:53:47;;;;;;;4.17;2.57;;;;;;;14.98;100.00;95905.94;5049546;28;20032;-89
2023/04/28 10:56:34;;;;;;;2.80;2.00;;;;;;;15.04;100.00;95889.28;5059297;28;20078;-89
2023/04/28 10:59:20;;;;;;;2.77;2.10;;;;;;;15.19;100.00;95896.25;5075336;28;20087;-90
2023/04/28 11:01:46;;;;;;;3.43;2.10;;;;;;;15.37;100.00;95896.56;5050924;28;20083;-91
2023/04/28 11:04:13;;;;;;;2.67;1.80;;;;;;;14.88;100.00;95894.88;5052334;28;20060;-91
2023/04/28 11:06:46;;;;;;;3.63;2.17;;;;;;;14.90;100.00;95895.50;5048594;28;20094;-91
2023/04/28 11:09:16;;;;;;;2.72;1.90;;;;;;;14.83;100.00;95898.13;5048800;28;20302;-91
2023/04/28 11:11:57;;;;;;;3.03;2.10;;;;;;;15.18;100.00;95892.81;5065826;28;20040;-91
2023/04/28 11:14:34;;;;;;;4.53;2.67;;;;;;;15.21;100.00;95897.72;5082776;28;20108;-91
2023/04/28 11:17:12;;;;;;;3.20;2.10;;;;;;;15.21;100.00;95897.72;5065890;28;20039;-91
2023/04/28 11:19:38;;;;;;;3.87;2.10;;;;;;;15.13;100.00;95897.88;5048603;28;20063;-91
2023/04/28 11:22:13;;;;;;;4.03;2.10;;;;;;;15.07;100.00;95907.41;5067735;28;20025;-91
2023/04/28 11:24:38;;;;;;;4.30;2.13;;;;;;;14.94;100.00;95906.53;5061794;28;20501;-91
2023/04/28 11:27:04;;;;;;;3.00;2.17;;;;;;;15.12;100.00;95912.13;5077292;28;20037;-91